Time;durP1;ratioP1;P1;durP2;ratioP2;P2;SDS_P1;SDS_P2;PMS_P1;PMS_P2;Temp;Humidity;BMP_temperature;BMP_pressure;BME280_temperature;BME280_humidity;BME280_pressure;Samples;Min_cycle;Max_cycle;Signal;HPM_P1;HPM_P2
2021/01/23 00:01:34;;;;;;;;;;;;;;;8.60;74.45;96396.68;1633708;86;26346;-87
2021/01/23 00:04:21;;;;;;;;;;;;;;;8.62;74.44;96390.81;1641070;86;24715;-88
2021/01/23 00:07:06;;;;;;;;;;;;;;;8.65;74.43;96400.97;1649487;86;20269;-87
2021/01/23 00:09:52;;;;;;;;;;;;;;;8.66;74.42;96397.41;1639033;86;24332;-88
2021/01/23 00:12:38;;;;;;;;;;;;;;;8.62;74.39;96392.12;1646608;86;22162;-92
2021/01/23 00:15:24;;;;;;;;;;;;;;;8.58;74.37;96393.38;1650168;86;26215;-92
2021/01/23 00:18:10;;;;;;;;;;;;;;;8.59;74.34;96391.12;1644939;86;24653;-89
2021/01/23 00:20:57;;;;;;;;;;;;;;;8.56;74.33;96383.60;1660353;85;20319;-93
2021/01/23 00:23:43;;;;;;;;;;;;;;;8.49;74.29;96381.70;1623090;87;25071;-86
2021/01/23 00:26:32;;;;;;;;;;;;;;;8.48;74.27;96382.19;1650298;86;22215;-86
2021/01/23 00:29:20;;;;;;;;;;;;;;;8.50;74.24;96376.84;1634314;86;26152;-89
2021/01/23 00:32:11;;;;;;;;;;;;;;;8.50;74.23;96378.97;1656506;85;24636;-86
2021/01/23 00:34:58;;;;;;;;;;;;;;;8.50;74.19;96378.14;1625175;87;20304;-87
2021/01/23 00:37:47;;;;;;;;;;;;;;;8.52;74.18;96377.49;1670893;85;25032;-87
2021/01/23 00:40:31;;;;;;;;;;;;;;;8.49;74.14;96360.38;1621089;87;23090;-87
2021/01/23 00:43:18;;;;;;;;;;;;;;;8.54;74.14;96354.72;1662733;85;26119;-87
2021/01/23 00:46:03;;;;;;;;;;;;;;;8.56;74.10;96352.80;1658794;85;25453;-87
2021/01/23 00:48:50;;;;;;;;;;;;;;;8.58;74.08;96350.37;1655750;86;20265;-86
2021/01/23 00:51:36;;;;;;;;;;;;;;;8.59;74.05;96345.98;1653602;86;26020;-86
2021/01/23 00:54:23;;;;;;;;;;;;;;;8.61;74.04;96348.78;1632471;85;22346;-87
2021/01/23 00:57:09;;;;;;;;;;;;;;;8.60;74.02;96336.71;1611636;87;26141;-87
2021/01/23 00:59:56;;;;;;;;;;;;;;;8.59;73.99;96334.24;1650664;86;24638;-84
2021/01/23 01:02:42;;;;;;;;;;;;;;;8.59;73.97;96337.67;1650580;86;20288;-87
2021/01/23 01:05:29;;;;;;;;;;;;;;;8.57;73.93;96336.98;1652685;86;25225;-87
2021/01/23 01:08:15;;;;;;;;;;;;;;;8.53;73.89;96336.13;1653116;86;22177;-87
2021/01/23 01:11:01;;;;;;;;;;;;;;;8.48;73.85;96322.71;1651991;86;26310;-83
2021/01/23 01:13:50;;;;;;;;;;;;;;;8.45;73.81;96332.96;1641168;84;24586;-83
2021/01/23 01:16:36;;;;;;;;;;;;;;;8.43;73.76;96330.15;1613923;87;20376;-83
2021/01/23 01:19:23;;;;;;;;;;;;;;;8.34;73.77;96326.16;1601888;87;25089;-87
2021/01/23 01:22:11;;;;;;;;;;;;;;;8.27;73.75;96331.57;1629746;85;22149;-86
2021/01/23 01:24:57;;;;;;;;;;;;;;;8.12;73.73;96316.56;1614684;87;26884;-86
2021/01/23 01:27:43;;;;;;;;;;;;;;;8.15;73.71;96320.99;1636185;85;24031;-87
2021/01/23 01:30:29;;;;;;;;;;;;;;;8.23;73.69;96313.77;1641846;86;20280;-87
2021/01/23 01:33:15;;;;;;;;;;;;;;;8.25;73.70;96304.83;1638609;86;24886;-86
2021/01/23 01:36:01;;;;;;;;;;;;;;;8.28;73.67;96305.03;1637814;86;22273;-87
2021/01/23 01:38:47;;;;;;;;;;;;;;;8.31;73.69;96302.16;1652391;86;26195;-87
2021/01/23 01:41:33;;;;;;;;;;;;;;;8.32;73.70;96290.77;1652505;85;24618;-86
2021/01/23 01:44:21;;;;;;;;;;;;;;;8.28;73.71;96286.80;1622289;85;20455;-87
2021/01/23 01:47:07;;;;;;;;;;;;;;;8.14;73.73;96278.96;1636986;86;25802;-87
2021/01/23 01:49:54;;;;;;;;;;;;;;;8.14;73.74;96280.75;1636591;86;22199;-87
2021/01/23 01:52:39;;;;;;;;;;;;;;;8.19;73.70;96273.31;1633085;86;27099;-87
2021/01/23 01:55:25;;;;;;;;;;;;;;;8.26;73.69;96282.20;1651429;86;24670;-86
2021/01/23 01:58:11;;;;;;;;;;;;;;;8.18;73.72;96262.07;1633836;85;20552;-87
2021/01/23 02:00:57;;;;;;;;;;;;;;;8.18;73.73;96267.79;1610570;87;25007;-87
2021/01/23 02:03:43;;;;;;;;;;;;;;;8.24;73.74;96260.67;1651958;86;22138;-87
2021/01/23 02:06:29;;;;;;;;;;;;;;;8.26;73.76;96253.53;1651782;86;26243;-87
2021/01/23 02:09:17;;;;;;;;;;;;;;;8.26;73.76;96247.02;1652341;86;25493;-87
2021/01/23 02:12:03;;;;;;;;;;;;;;;8.24;73.73;96247.16;1645866;85;20272;-87
2021/01/23 02:14:49;;;;;;;;;;;;;;;8.29;73.74;96249.35;1619694;87;24784;-86
2021/01/23 02:17:35;;;;;;;;;;;;;;;8.34;73.69;96244.55;1610496;87;22970;-86
2021/01/23 02:20:22;;;;;;;;;;;;;;;8.46;73.71;96238.62;1637520;85;26070;-83
2021/01/23 02:23:12;;;;;;;;;;;;;;;8.57;73.70;96238.41;1617822;87;24639;-83
2021/01/23 02:26:00;;;;;;;;;;;;;;;8.65;73.72;96243.23;1638597;85;20463;-84
2021/01/23 02:28:49;;;;;;;;;;;;;;;8.71;73.73;96236.12;1608724;87;25837;-83
2021/01/23 02:31:35;;;;;;;;;;;;;;;8.75;73.71;96240.05;1651951;85;22332;-85
2021/01/23 02:34:21;;;;;;;;;;;;;;;8.75;73.72;96231.41;1652332;86;26131;-85
2021/01/23 02:37:06;;;;;;;;;;;;;;;8.76;73.69;96227.84;1635471;85;24699;-86
2021/01/23 02:39:52;;;;;;;;;;;;;;;8.84;73.65;96236.23;1591766;87;20286;-85
2021/01/23 02:42:41;;;;;;;;;;;;;;;8.88;73.61;96231.05;1622979;87;24996;-86
2021/01/23 02:45:26;;;;;;;;;;;;;;;8.88;73.58;96226.65;1617465;87;22378;-85
2021/01/23 02:48:15;;;;;;;;;;;;;;;8.84;73.56;96227.10;1651385;85;26256;-85
2021/01/23 02:51:02;;;;;;;;;;;;;;;8.86;73.52;96228.58;1654826;85;24633;-85
2021/01/23 02:53:49;;;;;;;;;;;;;;;8.88;73.49;96225.83;1654672;86;20541;-85
2021/01/23 02:56:34;;;;;;;;;;;;;;;8.93;73.44;96232.71;1652261;86;24906;-85
2021/01/23 02:59:24;;;;;;;;;;;;;;;8.91;73.43;96226.33;1655242;86;22121;-85
2021/01/23 03:02:10;;;;;;;;;;;;;;;8.89;73.41;96236.59;1654630;86;26115;-84
2021/01/23 03:04:57;;;;;;;;;;;;;;;8.86;73.36;96245.53;1654709;86;24627;-85
2021/01/23 03:07:34;;;;;;;;;;;;;;;8.87;73.32;96248.47;1654138;86;20532;-90
2021/01/23 03:10:22;;;;;;;;;;;;;;;8.89;73.27;96248.33;1653160;86;25871;-90
2021/01/23 03:13:14;;;;;;;;;;;;;;;8.89;73.26;96249.13;1653474;86;22343;-89
2021/01/23 03:16:00;;;;;;;;;;;;;;;8.84;73.22;96251.87;1653558;86;26147;-90
2021/01/23 03:18:49;;;;;;;;;;;;;;;8.86;73.18;96240.31;1654080;86;24595;-90
2021/01/23 03:21:35;;;;;;;;;;;;;;;8.90;73.14;96246.86;1652630;86;20527;-88
2021/01/23 03:24:22;;;;;;;;;;;;;;;8.92;73.12;96246.72;1653280;86;24929;-88
2021/01/23 03:27:07;;;;;;;;;;;;;;;8.89;73.09;96240.52;1653609;86;22156;-87
2021/01/23 03:29:53;;;;;;;;;;;;;;;8.89;73.07;96248.33;1654069;86;26110;-88
2021/01/23 03:32:39;;;;;;;;;;;;;;;8.86;73.03;96252.53;1660087;85;25557;-88
2021/01/23 03:35:25;;;;;;;;;;;;;;;8.89;73.01;96249.64;1625963;86;20328;-88
2021/01/23 03:38:11;;;;;;;;;;;;;;;8.89;73.00;96240.00;1658951;85;24897;-89
2021/01/23 03:40:59;;;;;;;;;;;;;;;8.91;72.99;96235.95;1636825;86;22167;-89
2021/01/23 03:43:45;;;;;;;;;;;;;;;8.94;72.99;96233.88;1652554;86;26091;-89
2021/01/23 03:46:31;;;;;;;;;;;;;;;8.99;72.96;96246.45;1659582;85;24653;-86
2021/01/23 03:49:17;;;;;;;;;;;;;;;9.01;72.93;96236.67;1625809;86;20676;-89
2021/01/23 03:52:05;;;;;;;;;;;;;;;9.06;72.90;96233.13;1617314;87;24890;-88
2021/01/23 03:54:51;;;;;;;;;;;;;;;9.12;72.89;96229.91;1653746;85;23100;-88
2021/01/23 03:57:37;;;;;;;;;;;;;;;9.18;72.86;96221.48;1616003;87;26363;-88
2021/01/23 04:00:23;;;;;;;;;;;;;;;9.21;72.84;96232.45;1655405;85;24683;-88
2021/01/23 04:03:09;;;;;;;;;;;;;;;9.28;72.82;96232.63;1635790;86;20296;-88
2021/01/23 04:05:55;;;;;;;;;;;;;;;9.35;72.77;96219.31;1649033;86;24913;-86
2021/01/23 04:08:41;;;;;;;;;;;;;;;9.40;72.72;96214.45;1641416;86;23212;-85
2021/01/23 04:11:27;;;;;;;;;;;;;;;9.43;72.69;96206.81;1640515;86;27135;-84
2021/01/23 04:14:13;;;;;;;;;;;;;;;9.41;72.65;96207.44;1653594;85;24898;-85
2021/01/23 04:17:02;;;;;;;;;;;;;;;9.42;72.63;96198.64;1618366;87;20277;-86
2021/01/23 04:19:48;;;;;;;;;;;;;;;9.38;72.57;96199.93;1617663;87;24741;-85
2021/01/23 04:22:34;;;;;;;;;;;;;;;9.33;72.53;96186.52;1649099;86;22219;-85
2021/01/23 04:25:26;;;;;;;;;;;;;;;9.33;72.44;96186.01;1647482;86;26139;-86
2021/01/23 04:28:14;;;;;;;;;;;;;;;9.35;72.38;96185.38;1650934;86;24634;-84
2021/01/23 04:31:01;;;;;;;;;;;;;;;9.28;72.32;96179.12;1649580;86;20321;-85
2021/01/23 04:33:47;;;;;;;;;;;;;;;9.28;72.27;96161.34;1649552;86;25094;-85
2021/01/23 04:36:35;;;;;;;;;;;;;;;9.23;72.24;96161.33;1648491;86;22149;-85
2021/01/23 04:39:21;;;;;;;;;;;;;;;9.18;72.19;96158.37;1651189;86;26896;-88
2021/01/23 04:42:07;;;;;;;;;;;;;;;9.13;72.13;96163.23;1649853;86;24581;-88
2021/01/23 04:44:53;;;;;;;;;;;;;;;9.12;72.10;96163.38;1648383;86;20270;-88
2021/01/23 04:47:39;;;;;;;;;;;;;;;9.12;72.07;96158.98;1653550;85;24344;-88
2021/01/23 04:50:26;;;;;;;;;;;;;;;9.09;72.04;96158.48;1633844;86;22837;-88
2021/01/23 04:53:12;;;;;;;;;;;;;;;9.07;72.04;96163.02;1645683;86;26264;-89
2021/01/23 04:55:59;;;;;;;;;;;;;;;9.04;72.00;96159.42;1646928;86;24651;-88
2021/01/23 04:58:45;;;;;;;;;;;;;;;9.02;72.00;96153.53;1649661;86;20419;-88
2021/01/23 05:01:31;;;;;;;;;;;;;;;9.03;71.97;96152.56;1645902;86;24662;-88
2021/01/23 05:04:20;;;;;;;;;;;;;;;9.03;71.97;96159.09;1652791;86;22975;-87
2021/01/23 05:07:06;;;;;;;;;;;;;;;9.01;71.98;96153.19;1629071;87;26209;-85
2021/01/23 05:09:55;;;;;;;;;;;;;;;8.98;72.00;96143.08;1634687;86;24951;-85
2021/01/23 05:12:42;;;;;;;;;;;;;;;8.97;72.01;96125.78;1632395;87;20287;-84
2021/01/23 05:15:30;;;;;;;;;;;;;;;8.93;72.00;96129.20;1639680;86;25020;-84
2021/01/23 05:18:19;;;;;;;;;;;;;;;8.92;72.01;96122.82;1631660;86;22337;-85
2021/01/23 05:21:05;;;;;;;;;;;;;;;8.92;72.04;96130.16;1641436;86;26166;-85
2021/01/23 05:23:52;;;;;;;;;;;;;;;8.92;72.08;96122.34;1641798;86;25611;-85
2021/01/23 05:26:38;;;;;;;;;;;;;;;8.88;72.11;96128.84;1640303;86;20310;-84
2021/01/23 05:29:24;;;;;;;;;;;;;;;8.84;72.14;96133.22;1668379;85;25885;-85
2021/01/23 05:32:10;;;;;;;;;;;;;;;8.81;72.16;96142.15;1628103;87;22197;-85
2021/01/23 05:34:56;;;;;;;;;;;;;;;8.81;72.18;96141.66;1659367;85;27085;-85
2021/01/23 05:37:42;;;;;;;;;;;;;;;8.83;72.23;96150.65;1617188;87;24720;-84
2021/01/23 05:40:28;;;;;;;;;;;;;;;8.81;72.25;96152.09;1649193;86;20279;-87
2021/01/23 05:43:15;;;;;;;;;;;;;;;8.81;72.29;96152.58;1662504;85;25941;-87
2021/01/23 05:46:01;;;;;;;;;;;;;;;8.81;72.31;96152.58;1630676;87;22262;-87
2021/01/23 05:48:49;;;;;;;;;;;;;;;8.83;72.33;96151.13;1638990;87;27090;-89
2021/01/23 05:51:35;;;;;;;;;;;;;;;8.81;72.35;96149.48;1643039;85;24852;-87
2021/01/23 05:54:25;;;;;;;;;;;;;;;8.77;72.34;96145.55;1626980;86;20410;-87
2021/01/23 05:57:11;;;;;;;;;;;;;;;8.76;72.36;96128.75;1656165;86;25110;-87
2021/01/23 05:59:57;;;;;;;;;;;;;;;8.78;72.35;96137.25;1640351;86;23112;-88
2021/01/23 06:02:43;;;;;;;;;;;;;;;8.80;72.35;96154.84;1630343;87;26286;-87
2021/01/23 06:05:29;;;;;;;;;;;;;;;8.82;72.36;96156.83;1622760;86;24649;-87
2021/01/23 06:08:15;;;;;;;;;;;;;;;8.84;72.36;96153.56;1618655;87;20340;-87
2021/01/23 06:11:04;;;;;;;;;;;;;;;8.89;72.36;96145.31;1632875;87;25146;-87
2021/01/23 06:13:52;;;;;;;;;;;;;;;8.91;72.34;96148.08;1622568;87;22091;-85
2021/01/23 06:16:44;;;;;;;;;;;;;;;8.93;72.32;96153.98;1623462;87;26181;-85
2021/01/23 06:19:31;;;;;;;;;;;;;;;8.97;72.33;96157.09;1617648;87;24731;-90
2021/01/23 06:22:17;;;;;;;;;;;;;;;8.98;72.34;96161.34;1620281;87;20271;-90
2021/01/23 06:25:04;;;;;;;;;;;;;;;8.97;72.33;96165.73;1626104;87;24930;-90
2021/01/23 06:27:52;;;;;;;;;;;;;;;8.97;72.33;96163.12;1631139;86;22171;-87
2021/01/23 06:30:38;;;;;;;;;;;;;;;8.99;72.31;96152.55;1617702;87;26237;-87
2021/01/23 06:33:24;;;;;;;;;;;;;;;8.98;72.30;96151.73;1620078;87;24634;-88
2021/01/23 06:36:10;;;;;;;;;;;;;;;9.00;72.27;96143.23;1616117;87;20368;-85
2021/01/23 06:38:56;;;;;;;;;;;;;;;9.01;72.26;96145.36;1612518;87;24922;-86
2021/01/23 06:41:43;;;;;;;;;;;;;;;9.03;72.25;96144.73;1629792;87;22157;-87
2021/01/23 06:44:29;;;;;;;;;;;;;;;9.01;72.24;96147.49;1623466;87;26391;-87
2021/01/23 06:47:16;;;;;;;;;;;;;;;9.00;72.20;96141.14;1627148;87;25998;-88
2021/01/23 06:50:04;;;;;;;;;;;;;;;9.01;72.17;96144.06;1626756;87;20682;-89
2021/01/23 06:52:51;;;;;;;;;;;;;;;9.02;72.14;96143.09;1619206;87;24864;-85
2021/01/23 06:55:37;;;;;;;;;;;;;;;9.01;72.10;96138.84;1615068;87;22236;-89
2021/01/23 06:58:23;;;;;;;;;;;;;;;8.97;72.09;96146.66;1622570;87;26154;-89
2021/01/23 07:01:10;;;;;;;;;;;;;;;8.97;72.05;96159.21;1627933;86;25505;-89
2021/01/23 07:03:58;;;;;;;;;;;;;;;8.98;72.03;96158.73;1620737;87;20408;-90
2021/01/23 07:06:46;;;;;;;;;;;;;;;8.97;72.00;96157.91;1623196;87;20202;-85
2021/01/23 07:09:31;;;;;;;;;;;;;;;8.98;71.98;96163.46;1619812;87;22177;-85
2021/01/23 07:12:17;;;;;;;;;;;;;;;8.99;71.95;96153.85;1617994;87;26142;-87
2021/01/23 07:15:03;;;;;;;;;;;;;;;8.97;71.92;96152.69;1624594;87;24645;-87
2021/01/23 07:17:50;;;;;;;;;;;;;;;8.96;71.89;96126.75;1657606;85;20374;-87
2021/01/23 07:20:37;;;;;;;;;;;;;;;8.95;71.88;96124.62;1663419;85;24735;-89
2021/01/23 07:23:22;;;;;;;;;;;;;;;8.96;71.84;96099.36;1629930;86;22165;-88
2021/01/23 07:26:08;;;;;;;;;;;;;;;8.96;71.82;96113.22;1656192;86;26197;-88
2021/01/23 07:28:54;;;;;;;;;;;;;;;8.99;71.77;96095.16;1673336;85;24621;-88
2021/01/23 07:31:40;;;;;;;;;;;;;;;8.97;71.76;96109.65;1620897;86;20612;-85
2021/01/23 07:34:26;;;;;;;;;;;;;;;8.95;71.72;96109.45;1653142;86;24910;-87
2021/01/23 07:37:12;;;;;;;;;;;;;;;8.93;71.70;96122.67;1658318;86;23231;-88
2021/01/23 07:39:59;;;;;;;;;;;;;;;8.93;71.65;96118.77;1656131;86;26367;-87
2021/01/23 07:42:45;;;;;;;;;;;;;;;8.96;71.61;96116.31;1657280;86;24874;-88
2021/01/23 07:45:31;;;;;;;;;;;;;;;8.96;71.60;96109.31;1658686;86;20267;-89
2021/01/23 07:48:17;;;;;;;;;;;;;;;9.00;71.58;96117.67;1658450;86;24978;-88
2021/01/23 07:51:03;;;;;;;;;;;;;;;9.02;71.56;96121.74;1655334;84;23148;-85
2021/01/23 07:53:48;;;;;;;;;;;;;;;9.05;71.54;96114.93;1647330;87;26108;-85
2021/01/23 07:56:37;;;;;;;;;;;;;;;9.06;71.53;96119.63;1648291;86;25533;-88
2021/01/23 07:59:23;;;;;;;;;;;;;;;9.07;71.47;96121.27;1662190;85;20271;-88
2021/01/23 08:02:09;;;;;;;;;;;;;;;9.07;71.44;96126.49;1659136;85;24931;-90
2021/01/23 08:04:56;;;;;;;;;;;;;;;9.08;71.40;96118.52;1648236;85;22472;-90
2021/01/23 08:07:45;;;;;;;;;;;;;;;9.12;71.38;96116.41;1661279;85;26156;-89
2021/01/23 08:10:34;;;;;;;;;;;;;;;9.14;71.36;96122.30;1649217;85;25446;-89
2021/01/23 08:13:21;;;;;;;;;;;;;;;9.15;71.33;96112.20;1656214;85;20369;-89
2021/01/23 08:16:08;;;;;;;;;;;;;;;9.17;71.30;96120.19;1651409;85;25976;-90
2021/01/23 08:18:55;;;;;;;;;;;;;;;9.16;71.25;96116.45;1656084;85;22272;-89
2021/01/23 08:21:41;;;;;;;;;;;;;;;9.22;71.24;96131.47;1644588;85;26417;-89
2021/01/23 08:24:27;;;;;;;;;;;;;;;9.20;71.22;96129.52;1602141;87;24612;-88
2021/01/23 08:27:13;;;;;;;;;;;;;;;9.22;71.15;96128.37;1648505;85;20373;-88
2021/01/23 08:29:59;;;;;;;;;;;;;;;9.26;71.11;96144.56;1647509;85;24925;-88
2021/01/23 08:32:46;;;;;;;;;;;;;;;9.29;71.07;96136.41;1647638;85;22186;-89
2021/01/23 08:35:34;;;;;;;;;;;;;;;9.31;71.05;96127.95;1647637;85;26929;-88
2021/01/23 08:38:20;;;;;;;;;;;;;;;9.33;71.01;96125.19;1618630;87;24773;-88
2021/01/23 08:41:09;;;;;;;;;;;;;;;9.36;70.99;96110.02;1652653;85;20275;-88
2021/01/23 08:43:55;;;;;;;;;;;;;;;9.36;70.93;96126.98;1646651;85;24998;-88
2021/01/23 08:46:40;;;;;;;;;;;;;;;9.35;70.93;96121.43;1657949;85;22149;-88
2021/01/23 08:49:27;;;;;;;;;;;;;;;9.34;70.92;96110.66;1661180;85;26134;-88
2021/01/23 08:52:13;;;;;;;;;;;;;;;9.34;70.88;96109.34;1622718;86;24598;-88
2021/01/23 08:54:59;;;;;;;;;;;;;;;9.37;70.87;96112.97;1648708;86;20391;-88
2021/01/23 08:57:45;;;;;;;;;;;;;;;9.39;70.85;96131.88;1654022;85;24918;-86
2021/01/23 09:00:32;;;;;;;;;;;;;;;9.38;70.83;96115.88;1672711;85;22307;-88
2021/01/23 09:03:18;;;;;;;;;;;;;;;9.38;70.83;96114.58;1636477;87;26171;-88
2021/01/23 09:06:04;;;;;;;;;;;;;;;9.43;70.80;96124.58;1616408;88;25528;-87
2021/01/23 09:08:52;;;;;;;;;;;;;;;9.47;70.81;96116.27;1619115;88;20312;-88
2021/01/23 09:11:38;;;;;;;;;;;;;;;9.48;70.82;96110.08;1630293;86;24977;-88
2021/01/23 09:14:24;;;;;;;;;;;;;;;9.53;70.80;96119.56;1626830;87;22181;-88
2021/01/23 09:17:10;;;;;;;;;;;;;;;9.59;70.78;96116.33;1628645;87;26134;-88
2021/01/23 09:19:56;;;;;;;;;;;;;;;9.63;70.78;96110.29;1634468;87;24718;-88
2021/01/23 09:22:42;;;;;;;;;;;;;;;9.72;70.72;96115.86;1627981;87;20464;-89
2021/01/23 09:25:31;;;;;;;;;;;;;;;9.78;70.69;96113.92;1634673;87;25774;-89
2021/01/23 09:28:17;;;;;;;;;;;;;;;9.81;70.67;96108.40;1617450;88;22052;-88
2021/01/23 09:31:03;;;;;;;;;;;;;;;9.87;70.62;96105.13;1625169;87;27160;-89
2021/01/23 09:33:50;;;;;;;;;;;;;;;9.93;70.58;96106.28;1617157;87;24674;-90
2021/01/23 09:36:36;;;;;;;;;;;;;;;10.00;70.53;96114.64;1618099;88;20618;-89
2021/01/23 09:39:22;;;;;;;;;;;;;;;10.04;70.47;96112.51;1623931;87;24956;-89
2021/01/23 09:42:11;;;;;;;;;;;;;;;10.08;70.41;96115.16;1635354;87;22932;-86
2021/01/23 09:45:00;;;;;;;;;;;;;;;10.11;70.38;96116.13;1631110;87;26167;-86
2021/01/23 09:47:49;;;;;;;;;;;;;;;10.12;70.31;96116.45;1627925;87;24640;-88
2021/01/23 09:50:35;;;;;;;;;;;;;;;10.12;70.25;96116.45;1631141;87;20352;-88
2021/01/23 09:53:22;;;;;;;;;;;;;;;10.11;70.20;96121.34;1631502;87;25156;-89
2021/01/23 09:56:07;;;;;;;;;;;;;;;10.14;70.18;96135.42;1630244;87;22098;-90
2021/01/23 09:58:55;;;;;;;;;;;;;;;10.18;70.11;96149.83;1633176;87;26118;-88
2021/01/23 10:01:43;;;;;;;;;;;;;;;10.18;70.07;96155.05;1607036;87;40082;-89
2021/01/23 10:04:31;;;;;;;;;;;;;;;10.18;70.00;96148.52;1625985;87;20396;-88
2021/01/23 10:07:18;;;;;;;;;;;;;;;10.18;69.95;96149.83;1633935;87;24994;-87
2021/01/23 10:10:09;;;;;;;;;;;;;;;10.17;69.89;96174.32;1633082;87;22237;-88
2021/01/23 10:12:57;;;;;;;;;;;;;;;10.17;69.85;96171.70;1630952;87;26153;-87
2021/01/23 10:15:33;;;;;;;;;;;;;;;10.20;69.82;96174.50;1624040;87;25448;-88
2021/01/23 10:18:19;;;;;;;;;;;;;;;10.26;69.80;96176.45;1626441;87;20320;-91
2021/01/23 10:21:05;;;;;;;;;;;;;;;10.32;69.81;96180.55;1634640;87;23996;-89
2021/01/23 10:23:51;;;;;;;;;;;;;;;10.35;69.79;96174.20;1635514;87;21406;-90
2021/01/23 10:26:24;;;;;;;;;;;;;;;10.35;69.80;96180.25;1628487;87;26191;-89
2021/01/23 10:29:12;;;;;;;;;;;;;;;10.37;69.74;96167.00;1632940;87;25649;-89
2021/01/23 10:31:57;;;;;;;;;;;;;;;10.38;69.72;96172.07;1633930;87;20328;-88
2021/01/23 10:34:45;;;;;;;;;;;;;;;10.38;69.69;96166.84;1656787;85;25074;-89
2021/01/23 10:37:30;;;;;;;;;;;;;;;10.42;69.65;96179.09;1664280;85;22233;-89
2021/01/23 10:40:16;;;;;;;;;;;;;;;10.45;69.61;96166.53;1663960;86;26371;-88
2021/01/23 10:43:06;;;;;;;;;;;;;;;10.48;69.55;96160.15;1663840;86;24915;-87
2021/01/23 10:45:55;;;;;;;;;;;;;;;10.47;69.47;96161.94;1662908;86;20395;-88
2021/01/23 10:48:41;;;;;;;;;;;;;;;10.43;69.39;96163.25;1664012;86;24930;-88
2021/01/23 10:51:28;;;;;;;;;;;;;;;10.38;69.29;96159.00;1662351;86;22115;-89
2021/01/23 10:54:16;;;;;;;;;;;;;;;10.36;69.16;96162.28;1659563;85;27060;-89
2021/01/23 10:57:03;;;;;;;;;;;;;;;10.37;69.10;96163.89;1629054;86;24527;-91
2021/01/23 10:59:50;;;;;;;;;;;;;;;10.42;69.01;96162.09;1655085;85;20366;-89
2021/01/23 11:02:37;;;;;;;;;;;;;;;10.53;68.95;96158.38;1666883;85;24901;-89
2021/01/23 11:05:23;;;;;;;;;;;;;;;10.63;68.90;96157.23;1641880;85;22171;-89
2021/01/23 11:08:11;;;;;;;;;;;;;;;10.72;68.84;96139.73;1610137;87;27133;-87
2021/01/23 11:10:57;;;;;;;;;;;;;;;10.76;68.72;96135.31;1671226;85;24643;-87
2021/01/23 11:13:43;;;;;;;;;;;;;;;10.81;68.60;96128.27;1629706;86;20463;-88
2021/01/23 11:16:29;;;;;;;;;;;;;;;10.83;68.46;96128.94;1654942;86;24755;-86
2021/01/23 11:19:17;;;;;;;;;;;;;;;10.88;68.36;96120.92;1654769;86;22171;-88
2021/01/23 11:22:04;;;;;;;;;;;;;;;10.88;68.30;96124.02;1653169;85;26152;-87
2021/01/23 11:24:50;;;;;;;;;;;;;;;10.85;68.24;96121.27;1653553;86;25720;-88
2021/01/23 11:27:36;;;;;;;;;;;;;;;10.78;68.14;96096.73;1661614;85;20350;-89
2021/01/23 11:30:22;;;;;;;;;;;;;;;10.73;68.04;96109.98;1621172;87;24916;-88
2021/01/23 11:33:09;;;;;;;;;;;;;;;10.69;67.92;96108.16;1626235;87;22506;-88
2021/01/23 11:35:55;;;;;;;;;;;;;;;10.68;67.84;96114.89;1653665;85;26142;-87
2021/01/23 11:38:40;;;;;;;;;;;;;;;10.73;67.73;96120.45;1624176;87;24632;-88
2021/01/23 11:41:26;;;;;;;;;;;;;;;10.82;67.72;96113.73;1651165;85;20283;-89
2021/01/23 11:44:13;;;;;;;;;;;;;;;10.82;67.66;96117.66;1660268;85;24086;-89
2021/01/23 11:46:58;;;;;;;;;;;;;;;10.84;67.58;96115.70;1642615;86;21959;-87
2021/01/23 11:49:45;;;;;;;;;;;;;;;10.87;67.50;96107.50;1634455;86;26219;-87
2021/01/23 11:52:32;;;;;;;;;;;;;;;10.83;67.37;96103.59;1639378;86;24623;-86
2021/01/23 11:55:21;;;;;;;;;;;;;;;10.77;67.17;96098.20;1643838;86;20862;-87
2021/01/23 11:58:07;;;;;;;;;;;;;;;10.69;66.99;96096.91;1643680;86;24919;-86
2021/01/23 12:00:53;;;;;;;;;;;;;;;10.67;66.84;96101.48;1644887;86;22052;-88
2021/01/23 12:03:40;;;;;;;;;;;;;;;10.62;66.70;96100.67;1634238;86;26181;-88
2021/01/23 12:06:27;;;;;;;;;;;;;;;10.61;66.58;96096.91;1645331;86;24700;-88
2021/01/23 12:09:15;;;;;;;;;;;;;;;10.63;66.46;96091.03;1644550;86;20587;-88
2021/01/23 12:11:49;;;;;;;;;;;;;;;10.63;66.37;96087.92;1640768;86;24884;-88
2021/01/23 12:14:22;;;;;;;;;;;;;;;10.58;66.24;96073.22;1643603;86;22136;-88
2021/01/23 12:17:08;;;;;;;;;;;;;;;10.60;66.15;96078.27;1636263;86;26123;-88
2021/01/23 12:19:54;;;;;;;;;;;;;;;10.61;66.08;96078.59;1637232;86;24710;-87
2021/01/23 12:22:40;;;;;;;;;;;;;;;10.55;65.95;96070.09;1655261;85;20287;-88
2021/01/23 12:25:26;;;;;;;;;;;;;;;10.52;65.84;96063.42;1652874;85;24963;-87
2021/01/23 12:28:12;;;;;;;;;;;;;;;10.51;65.75;96080.56;1651953;86;22298;-89
2021/01/23 12:30:58;;;;;;;;;;;;;;;10.47;65.68;96071.73;1653031;86;26138;-90
2021/01/23 12:33:44;;;;;;;;;;;;;;;10.43;65.61;96073.53;1654788;86;24787;-89
2021/01/23 12:36:30;;;;;;;;;;;;;;;10.42;65.55;96066.66;1644824;86;20320;-89
2021/01/23 12:39:16;;;;;;;;;;;;;;;10.39;65.49;96076.16;1655850;85;24925;-89
2021/01/23 12:42:02;;;;;;;;;;;;;;;10.40;65.46;96062.11;1612896;87;21237;-87
2021/01/23 12:44:50;;;;;;;;;;;;;;;10.39;65.38;96071.75;1624017;87;26391;-87
2021/01/23 12:47:40;;;;;;;;;;;;;;;10.37;65.32;96060.63;1599431;89;24687;-87
2021/01/23 12:50:30;;;;;;;;;;;;;;;10.36;65.25;96073.39;1631843;87;20329;-87
2021/01/23 12:53:16;;;;;;;;;;;;;;;10.31;65.17;96069.12;1629999;86;24475;-89
2021/01/23 12:56:03;;;;;;;;;;;;;;;10.30;65.11;96076.66;1618894;87;22151;-89
2021/01/23 12:58:49;;;;;;;;;;;;;;;10.25;65.02;96072.41;1631315;87;26149;-87
2021/01/23 13:01:36;;;;;;;;;;;;;;;10.23;64.98;96068.31;1624964;87;24533;-87
2021/01/23 13:04:23;;;;;;;;;;;;;;;10.23;64.93;96073.53;1621669;87;20437;-87
2021/01/23 13:07:11;;;;;;;;;;;;;;;10.22;64.90;96056.22;1629646;87;25003;-88
2021/01/23 13:09:57;;;;;;;;;;;;;;;10.22;64.87;96059.65;1620991;87;22198;-87
2021/01/23 13:12:44;;;;;;;;;;;;;;;10.23;64.85;96058.67;1619103;86;26187;-87
2021/01/23 13:15:30;;;;;;;;;;;;;;;10.24;64.87;96062.11;1614738;87;24739;-88
2021/01/23 13:18:16;;;;;;;;;;;;;;;10.17;64.88;96065.03;1606225;87;20298;-87
2021/01/23 13:21:02;;;;;;;;;;;;;;;10.10;64.91;96072.67;1619195;87;24936;-88
2021/01/23 13:23:51;;;;;;;;;;;;;;;10.01;64.95;96082.30;1622837;87;22240;-87
2021/01/23 13:26:37;;;;;;;;;;;;;;;9.91;64.99;96093.88;1604576;87;26164;-87
2021/01/23 13:29:23;;;;;;;;;;;;;;;9.77;65.02;96101.83;1620246;87;24702;-87
2021/01/23 13:32:09;;;;;;;;;;;;;;;9.62;65.09;96100.33;1614705;87;20390;-87
2021/01/23 13:34:59;;;;;;;;;;;;;;;9.43;65.17;96102.39;1623520;87;24986;-87
2021/01/23 13:37:45;;;;;;;;;;;;;;;9.24;65.24;96102.12;1617533;88;22203;-89
2021/01/23 13:40:35;;;;;;;;;;;;;;;9.10;65.34;96109.24;1619126;88;26147;-85
2021/01/23 13:43:22;;;;;;;;;;;;;;;8.91;65.44;96118.56;1617251;87;26112;-87
2021/01/23 13:46:08;;;;;;;;;;;;;;;8.76;65.54;96113.92;1618787;87;20478;-87
2021/01/23 13:48:55;;;;;;;;;;;;;;;8.66;65.65;96121.02;1615218;88;25005;-90
2021/01/23 13:51:41;;;;;;;;;;;;;;;8.47;65.78;96125.58;1618448;88;22309;-87
2021/01/23 13:54:27;;;;;;;;;;;;;;;8.30;65.82;96120.23;1619985;87;26167;-86
2021/01/23 13:57:13;;;;;;;;;;;;;;;8.20;65.88;96121.24;1618427;88;24569;-86
2021/01/23 13:59:59;;;;;;;;;;;;;;;8.13;65.95;96130.13;1619194;88;20311;-86
2021/01/23 14:02:45;;;;;;;;;;;;;;;8.03;66.03;96129.39;1618460;88;24909;-87
2021/01/23 14:05:31;;;;;;;;;;;;;;;7.92;66.11;96131.72;1619633;87;23079;-87
2021/01/23 14:08:17;;;;;;;;;;;;;;;7.83;66.20;96142.20;1619030;88;26158;-88
2021/01/23 14:11:03;;;;;;;;;;;;;;;7.72;66.26;96136.72;1621354;87;24832;-88
2021/01/23 14:13:49;;;;;;;;;;;;;;;7.62;66.33;96133.36;1619374;88;20305;-88
2021/01/23 14:16:35;;;;;;;;;;;;;;;7.54;66.39;96141.05;1618513;88;24971;-88
2021/01/23 14:19:23;;;;;;;;;;;;;;;7.47;66.46;96140.80;1618797;87;22970;-88
2021/01/23 14:22:10;;;;;;;;;;;;;;;7.44;66.52;96146.78;1617510;87;26259;-87
2021/01/23 14:24:55;;;;;;;;;;;;;;;7.40;66.58;96154.07;1617523;88;23847;-86
2021/01/23 14:27:42;;;;;;;;;;;;;;;7.37;66.63;96158.72;1619487;88;20528;-87
2021/01/23 14:30:29;;;;;;;;;;;;;;;7.34;66.69;96165.52;1619106;88;25141;-88
2021/01/23 14:33:15;;;;;;;;;;;;;;;7.30;66.75;96160.27;1619227;88;22078;-88
2021/01/23 14:36:05;;;;;;;;;;;;;;;7.28;66.80;96160.89;1619943;88;27054;-88